EZY44D LGAV-LIRN
Flight info
| Callsign | EZY44D |
|---|---|
| Flight time | 1h 38m |
| Altitude | 36000 |
| Route | KOR UL53 IXONI DCT TIGRA DCT MOKTO DCT DOGUS DCT EKTOL |
| Aircraft | A320/M-SDE3FGHIRWY/LB1 |
Departure
| Time | 2026-05-05 19:49 |
|---|---|
| Airport | Athens Eleftherios Venizelos International Airport (LGAV) |
Arrival
| Time | 2026-05-05 21:27 |
|---|---|
| Airport | Naples International Airport (LIRN) |
| Time | Latitude | Longitude | Altitude | Speed | Heading |
|---|---|---|---|---|---|
| 2026-05-05 19:13 | 37.93372 | 23.94614 | 301 ft | 0 kts | 306° |
| 2026-05-05 19:33 | 37.93369 | 23.94620 | 303 ft | 4 kts | 306° |
| 2026-05-05 19:33 | 37.93355 | 23.94644 | 301 ft | 2 kts | 306° |
| 2026-05-05 19:33 | 37.93341 | 23.94671 | 301 ft | 4 kts | 294° |
| 2026-05-05 19:34 | 37.93336 | 23.94701 | 302 ft | 4 kts | 248° |
| 2026-05-05 19:34 | 37.93351 | 23.94722 | 302 ft | 4 kts | 217° |
| 2026-05-05 19:34 | 37.93356 | 23.94727 | 301 ft | 0 kts | 217° |
| 2026-05-05 19:36 | 37.93351 | 23.94722 | 302 ft | 4 kts | 217° |
| 2026-05-05 19:37 | 37.93349 | 23.94720 | 302 ft | 0 kts | 217° |
| 2026-05-05 19:37 | 37.93340 | 23.94712 | 301 ft | 6 kts | 217° |
| 2026-05-05 19:38 | 37.93282 | 23.94657 | 301 ft | 15 kts | 217° |
| 2026-05-05 19:38 | 37.93187 | 23.94595 | 301 ft | 14 kts | 190° |
| 2026-05-05 19:38 | 37.93098 | 23.94589 | 302 ft | 12 kts | 186° |
| 2026-05-05 19:38 | 37.93030 | 23.94547 | 302 ft | 10 kts | 218° |
| 2026-05-05 19:39 | 37.92977 | 23.94496 | 302 ft | 9 kts | 217° |
| 2026-05-05 19:39 | 37.92931 | 23.94452 | 302 ft | 10 kts | 214° |
| 2026-05-05 19:39 | 37.92861 | 23.94388 | 303 ft | 14 kts | 216° |
| 2026-05-05 19:39 | 37.92785 | 23.94317 | 302 ft | 13 kts | 217° |
| 2026-05-05 19:40 | 37.92718 | 23.94253 | 303 ft | 11 kts | 217° |
| 2026-05-05 19:40 | 37.92659 | 23.94197 | 303 ft | 10 kts | 217° |
| 2026-05-05 19:40 | 37.92607 | 23.94208 | 304 ft | 7 kts | 140° |
| 2026-05-05 19:40 | 37.92582 | 23.94250 | 303 ft | 5 kts | 126° |
| 2026-05-05 19:41 | 37.92566 | 23.94277 | 305 ft | 3 kts | 127° |
| 2026-05-05 19:41 | 37.92563 | 23.94282 | 304 ft | 0 kts | 127° |
| 2026-05-05 19:47 | 37.92563 | 23.94283 | 304 ft | 0 kts | 127° |
| 2026-05-05 19:47 | 37.92537 | 23.94325 | 307 ft | 12 kts | 127° |
| 2026-05-05 19:47 | 37.92486 | 23.94431 | 309 ft | 14 kts | 92° |
| 2026-05-05 19:48 | 37.92560 | 23.94523 | 306 ft | 17 kts | 37° |
| 2026-05-05 19:48 | 37.92576 | 23.94538 | 306 ft | 0 kts | 37° |
| 2026-05-05 19:48 | 37.92711 | 23.94665 | 303 ft | 60 kts | 36° |
| 2026-05-05 19:48 | 37.93234 | 23.95157 | 292 ft | 126 kts | 37° |
| 2026-05-05 19:49 | 37.94080 | 23.95944 | 393 ft | 164 kts | 36° |
| 2026-05-05 19:49 | 37.94682 | 23.96503 | 950 ft | 154 kts | 35° |
| 2026-05-05 19:49 | 37.95784 | 23.97555 | 1911 ft | 146 kts | 37° |
| 2026-05-05 19:49 | 37.96672 | 23.98425 | 2092 ft | 176 kts | 37° |
| 2026-05-05 19:50 | 37.97740 | 23.99468 | 2261 ft | 208 kts | 37° |
| 2026-05-05 19:50 | 37.98931 | 24.00675 | 2601 ft | 230 kts | 38° |
| 2026-05-05 19:50 | 38.00236 | 24.02021 | 2910 ft | 259 kts | 38° |
| 2026-05-05 19:50 | 38.01703 | 24.03540 | 3365 ft | 284 kts | 38° |
| 2026-05-05 19:51 | 38.03287 | 24.05186 | 3872 ft | 304 kts | 38° |
| 2026-05-05 19:51 | 38.04992 | 24.06844 | 4676 ft | 311 kts | 36° |
| 2026-05-05 19:51 | 38.06699 | 24.08472 | 5874 ft | 302 kts | 36° |
| 2026-05-05 19:51 | 38.08303 | 24.10109 | 7029 ft | 296 kts | 41° |
| 2026-05-05 19:52 | 38.09484 | 24.12192 | 8241 ft | 290 kts | 69° |
| 2026-05-05 19:52 | 38.09512 | 24.14690 | 9613 ft | 285 kts | 105° |
| 2026-05-05 19:52 | 38.08392 | 24.16715 | 10801 ft | 283 kts | 140° |
| 2026-05-05 19:52 | 38.06568 | 24.17815 | 11215 ft | 306 kts | 170° |
| 2026-05-05 19:53 | 38.04426 | 24.17674 | 11725 ft | 316 kts | 200° |
| 2026-05-05 19:53 | 38.02583 | 24.16230 | 12399 ft | 314 kts | 232° |
| 2026-05-05 19:53 | 38.01392 | 24.13918 | 13153 ft | 312 kts | 246° |
| 2026-05-05 19:53 | 38.00410 | 24.11456 | 13588 ft | 328 kts | 249° |
| 2026-05-05 19:54 | 37.99417 | 24.08729 | 13756 ft | 350 kts | 249° |
| 2026-05-05 19:54 | 37.98390 | 24.05829 | 14057 ft | 366 kts | 249° |
| 2026-05-05 19:54 | 37.97333 | 24.02871 | 14614 ft | 372 kts | 249° |
| 2026-05-05 19:54 | 37.96244 | 23.99893 | 15274 ft | 375 kts | 249° |
| 2026-05-05 19:55 | 37.95130 | 23.96906 | 15957 ft | 377 kts | 248° |
| 2026-05-05 19:55 | 37.93993 | 23.93908 | 16636 ft | 379 kts | 248° |
| 2026-05-05 19:55 | 37.92839 | 23.90885 | 17316 ft | 381 kts | 249° |
| 2026-05-05 19:55 | 37.91686 | 23.87863 | 17983 ft | 383 kts | 249° |
| 2026-05-05 19:56 | 37.90521 | 23.84808 | 18607 ft | 386 kts | 249° |
| 2026-05-05 19:56 | 37.89560 | 23.81652 | 19172 ft | 382 kts | 259° |
| 2026-05-05 19:56 | 37.89106 | 23.78371 | 19765 ft | 378 kts | 270° |
| 2026-05-05 19:56 | 37.89138 | 23.75072 | 20352 ft | 376 kts | 278° |
| 2026-05-05 19:57 | 37.89321 | 23.71737 | 20927 ft | 379 kts | 278° |
| 2026-05-05 19:57 | 37.89440 | 23.69519 | 21307 ft | 380 kts | 278° |
| 2026-05-05 19:57 | 37.89668 | 23.65067 | 22037 ft | 383 kts | 277° |
| 2026-05-05 19:57 | 37.89837 | 23.61690 | 22581 ft | 385 kts | 277° |
| 2026-05-05 19:58 | 37.90007 | 23.58294 | 23115 ft | 387 kts | 277° |
| 2026-05-05 19:58 | 37.90177 | 23.54880 | 23628 ft | 390 kts | 277° |
| 2026-05-05 19:58 | 37.90345 | 23.51448 | 24054 ft | 391 kts | 278° |
| 2026-05-05 19:58 | 37.90510 | 23.47999 | 24478 ft | 393 kts | 278° |
| 2026-05-05 19:59 | 37.90672 | 23.44536 | 24891 ft | 395 kts | 278° |
| 2026-05-05 19:59 | 37.90836 | 23.41067 | 25275 ft | 396 kts | 278° |
| 2026-05-05 19:59 | 37.91005 | 23.37588 | 25694 ft | 397 kts | 278° |
| 2026-05-05 19:59 | 37.91176 | 23.34091 | 26085 ft | 398 kts | 278° |
| 2026-05-05 20:00 | 37.91346 | 23.30586 | 26474 ft | 399 kts | 278° |
| 2026-05-05 20:00 | 37.91515 | 23.27074 | 26856 ft | 401 kts | 278° |
| 2026-05-05 20:00 | 37.91682 | 23.23542 | 27238 ft | 402 kts | 278° |
| 2026-05-05 20:00 | 37.91849 | 23.20009 | 27610 ft | 403 kts | 278° |
| 2026-05-05 20:01 | 37.92015 | 23.16473 | 27992 ft | 404 kts | 278° |
| 2026-05-05 20:01 | 37.92182 | 23.12906 | 28345 ft | 405 kts | 278° |
| 2026-05-05 20:01 | 37.92346 | 23.09334 | 28658 ft | 407 kts | 278° |
| 2026-05-05 20:01 | 37.92506 | 23.05746 | 28970 ft | 408 kts | 278° |
| 2026-05-05 20:02 | 37.92668 | 23.02145 | 29264 ft | 410 kts | 279° |
| 2026-05-05 20:02 | 37.92845 | 22.98577 | 29499 ft | 411 kts | 281° |
| 2026-05-05 20:02 | 37.93365 | 22.95041 | 29778 ft | 406 kts | 290° |
| 2026-05-05 20:02 | 37.94352 | 22.91706 | 30071 ft | 403 kts | 299° |
| 2026-05-05 20:03 | 37.95764 | 22.88653 | 30312 ft | 400 kts | 307° |
| 2026-05-05 20:03 | 37.97364 | 22.85774 | 30591 ft | 400 kts | 307° |
| 2026-05-05 20:03 | 37.98957 | 22.82893 | 30909 ft | 398 kts | 307° |
| 2026-05-05 20:03 | 38.00537 | 22.80016 | 31223 ft | 398 kts | 307° |
| 2026-05-05 20:04 | 38.02116 | 22.77133 | 31495 ft | 397 kts | 307° |
| 2026-05-05 20:04 | 38.03683 | 22.74269 | 31765 ft | 397 kts | 307° |
| 2026-05-05 20:04 | 38.05262 | 22.71385 | 32058 ft | 397 kts | 307° |
| 2026-05-05 20:04 | 38.06835 | 22.68519 | 32354 ft | 396 kts | 307° |
| 2026-05-05 20:05 | 38.08410 | 22.65647 | 32652 ft | 396 kts | 307° |
| 2026-05-05 20:05 | 38.09985 | 22.62781 | 32948 ft | 395 kts | 307° |
| 2026-05-05 20:05 | 38.11540 | 22.59949 | 33241 ft | 394 kts | 307° |
| 2026-05-05 20:05 | 38.13108 | 22.57084 | 33547 ft | 394 kts | 307° |
| 2026-05-05 20:06 | 38.14666 | 22.54234 | 33846 ft | 393 kts | 307° |
| 2026-05-05 20:06 | 38.16225 | 22.51379 | 34129 ft | 393 kts | 307° |
| 2026-05-05 20:06 | 38.17778 | 22.48529 | 34383 ft | 392 kts | 307° |
| 2026-05-05 20:06 | 38.19334 | 22.45667 | 34638 ft | 392 kts | 307° |
| 2026-05-05 20:07 | 38.20886 | 22.42809 | 34819 ft | 394 kts | 306° |
| 2026-05-05 20:07 | 38.22443 | 22.39943 | 35014 ft | 395 kts | 306° |
| 2026-05-05 20:07 | 38.24006 | 22.37068 | 35241 ft | 395 kts | 306° |
| 2026-05-05 20:07 | 38.25565 | 22.34203 | 35482 ft | 394 kts | 306° |
| 2026-05-05 20:08 | 38.27104 | 22.31368 | 35714 ft | 394 kts | 306° |
| 2026-05-05 20:08 | 38.28676 | 22.28463 | 35944 ft | 393 kts | 306° |
| 2026-05-05 20:08 | 38.30212 | 22.25626 | 36107 ft | 393 kts | 306° |
| 2026-05-05 20:09 | 38.33320 | 22.19936 | 36117 ft | 390 kts | 306° |
| 2026-05-05 20:09 | 38.36510 | 22.14303 | 36331 ft | 391 kts | 307° |
| 2026-05-05 20:09 | 38.38109 | 22.11500 | 36533 ft | 391 kts | 307° |
| 2026-05-05 20:10 | 38.39712 | 22.08685 | 36687 ft | 392 kts | 306° |
| 2026-05-05 20:10 | 38.41308 | 22.05871 | 36876 ft | 392 kts | 306° |
| 2026-05-05 20:10 | 38.42904 | 22.03044 | 37034 ft | 393 kts | 306° |
| 2026-05-05 20:10 | 38.44501 | 22.00207 | 37236 ft | 392 kts | 306° |
| 2026-05-05 20:11 | 38.46062 | 21.97423 | 37430 ft | 391 kts | 306° |
| 2026-05-05 20:11 | 38.47640 | 21.94611 | 37622 ft | 390 kts | 306° |
| 2026-05-05 20:11 | 38.49225 | 21.91787 | 37837 ft | 389 kts | 305° |
| 2026-05-05 20:11 | 38.50805 | 21.88966 | 38043 ft | 389 kts | 305° |
| 2026-05-05 20:12 | 38.52378 | 21.86149 | 38134 ft | 389 kts | 305° |
| 2026-05-05 20:12 | 38.54988 | 21.81484 | 38138 ft | 389 kts | 305° |
| 2026-05-05 20:13 | 38.58138 | 21.75855 | 38156 ft | 390 kts | 305° |
| 2026-05-05 20:13 | 38.61283 | 21.70221 | 38140 ft | 390 kts | 305° |
| 2026-05-05 20:14 | 38.64431 | 21.64567 | 38145 ft | 390 kts | 305° |
| 2026-05-05 20:14 | 38.67572 | 21.58912 | 38136 ft | 390 kts | 304° |
| 2026-05-05 20:15 | 38.70716 | 21.53232 | 38158 ft | 391 kts | 305° |
| 2026-05-05 20:15 | 38.73846 | 21.47581 | 38156 ft | 390 kts | 305° |
| 2026-05-05 20:16 | 38.76989 | 21.41902 | 38149 ft | 390 kts | 305° |
| 2026-05-05 20:16 | 38.80137 | 21.36201 | 38159 ft | 391 kts | 305° |
| 2026-05-05 20:17 | 38.83250 | 21.30535 | 38153 ft | 391 kts | 304° |
| 2026-05-05 20:17 | 38.86384 | 21.24838 | 38159 ft | 391 kts | 304° |
| 2026-05-05 20:18 | 38.89516 | 21.19137 | 38163 ft | 391 kts | 304° |
| 2026-05-05 20:18 | 38.92647 | 21.13426 | 38137 ft | 391 kts | 304° |
| 2026-05-05 20:19 | 38.95772 | 21.07714 | 38151 ft | 391 kts | 304° |
| 2026-05-05 20:19 | 38.98880 | 21.02030 | 38137 ft | 392 kts | 304° |
| 2026-05-05 20:20 | 39.02018 | 20.96269 | 38137 ft | 392 kts | 304° |
| 2026-05-05 20:20 | 39.05148 | 20.90512 | 38152 ft | 393 kts | 304° |
| 2026-05-05 20:21 | 39.08284 | 20.84740 | 38154 ft | 393 kts | 304° |
| 2026-05-05 20:21 | 39.11408 | 20.78977 | 38148 ft | 393 kts | 304° |
| 2026-05-05 20:22 | 39.14524 | 20.73219 | 38150 ft | 393 kts | 304° |
| 2026-05-05 20:22 | 39.17657 | 20.67406 | 38148 ft | 393 kts | 304° |
| 2026-05-05 20:23 | 39.20776 | 20.61621 | 38146 ft | 393 kts | 304° |
| 2026-05-05 20:23 | 39.23909 | 20.55808 | 38146 ft | 393 kts | 304° |
| 2026-05-05 20:24 | 39.27016 | 20.50032 | 38144 ft | 393 kts | 304° |
| 2026-05-05 20:24 | 39.30112 | 20.44261 | 38143 ft | 394 kts | 304° |
| 2026-05-05 20:25 | 39.33233 | 20.38427 | 38133 ft | 394 kts | 304° |
| 2026-05-05 20:25 | 39.36352 | 20.32586 | 38121 ft | 395 kts | 304° |
| 2026-05-05 20:26 | 39.39465 | 20.26750 | 38120 ft | 395 kts | 304° |
| 2026-05-05 20:26 | 39.42571 | 20.20916 | 38117 ft | 396 kts | 304° |
| 2026-05-05 20:27 | 39.45702 | 20.15037 | 38127 ft | 396 kts | 304° |
| 2026-05-05 20:27 | 39.48829 | 20.09137 | 38097 ft | 397 kts | 304° |
| 2026-05-05 20:28 | 39.51953 | 20.03219 | 38106 ft | 398 kts | 304° |
| 2026-05-05 20:28 | 39.55083 | 19.97292 | 38101 ft | 398 kts | 304° |
| 2026-05-05 20:29 | 39.58195 | 19.91394 | 38115 ft | 399 kts | 304° |
| 2026-05-05 20:29 | 39.61332 | 19.85450 | 38112 ft | 398 kts | 304° |
| 2026-05-05 20:30 | 39.64409 | 19.79604 | 38099 ft | 385 kts | 304° |
| 2026-05-05 20:30 | 39.67421 | 19.73848 | 38116 ft | 395 kts | 304° |
| 2026-05-05 20:31 | 39.70521 | 19.67915 | 38105 ft | 402 kts | 304° |
| 2026-05-05 20:31 | 39.73689 | 19.61847 | 38107 ft | 408 kts | 304° |
| 2026-05-05 20:32 | 39.76884 | 19.55731 | 38111 ft | 412 kts | 304° |
| 2026-05-05 20:32 | 39.79737 | 19.50259 | 38115 ft | 415 kts | 304° |
| 2026-05-05 20:33 | 39.81718 | 19.46451 | 38109 ft | 416 kts | 304° |
| 2026-05-05 20:33 | 39.84870 | 19.40385 | 38115 ft | 417 kts | 304° |
| 2026-05-05 20:34 | 39.88094 | 19.34161 | 38117 ft | 418 kts | 304° |
| 2026-05-05 20:34 | 39.91344 | 19.27869 | 38111 ft | 418 kts | 304° |
| 2026-05-05 20:35 | 39.94588 | 19.21583 | 38109 ft | 419 kts | 304° |
| 2026-05-05 20:35 | 39.97840 | 19.15269 | 38110 ft | 419 kts | 304° |
| 2026-05-05 20:36 | 40.01085 | 19.08950 | 38104 ft | 415 kts | 304° |
| 2026-05-05 20:36 | 40.02637 | 19.05918 | 38106 ft | 399 kts | 304° |
| 2026-05-05 20:36 | 40.04171 | 19.02918 | 38105 ft | 394 kts | 304° |
| 2026-05-05 20:37 | 40.06734 | 18.96643 | 38106 ft | 393 kts | 294° |
| 2026-05-05 20:37 | 40.08812 | 18.90035 | 38115 ft | 393 kts | 294° |
| 2026-05-05 20:38 | 40.10892 | 18.83429 | 38099 ft | 393 kts | 294° |
| 2026-05-05 20:38 | 40.12973 | 18.76814 | 38090 ft | 393 kts | 294° |
| 2026-05-05 20:39 | 40.15045 | 18.70202 | 38083 ft | 394 kts | 294° |
| 2026-05-05 20:39 | 40.17104 | 18.63592 | 38099 ft | 395 kts | 294° |
| 2026-05-05 20:40 | 40.19170 | 18.56930 | 38097 ft | 395 kts | 294° |
| 2026-05-05 20:40 | 40.21238 | 18.50260 | 38103 ft | 395 kts | 294° |
| 2026-05-05 20:41 | 40.23307 | 18.43583 | 38106 ft | 396 kts | 294° |
| 2026-05-05 20:41 | 40.25375 | 18.36903 | 38102 ft | 397 kts | 294° |
| 2026-05-05 20:42 | 40.27444 | 18.30215 | 38103 ft | 397 kts | 294° |
| 2026-05-05 20:42 | 40.29516 | 18.23480 | 38105 ft | 397 kts | 293° |
| 2026-05-05 20:43 | 40.31564 | 18.16788 | 38112 ft | 398 kts | 293° |
| 2026-05-05 20:43 | 40.33611 | 18.10099 | 38124 ft | 398 kts | 293° |
| 2026-05-05 20:44 | 40.35672 | 18.03348 | 38118 ft | 398 kts | 293° |
| 2026-05-05 20:44 | 40.37716 | 17.96634 | 38116 ft | 398 kts | 293° |
| 2026-05-05 20:45 | 40.40711 | 17.86741 | 38084 ft | 385 kts | 293° |
| 2026-05-05 20:45 | 40.42718 | 17.80139 | 38081 ft | 394 kts | 293° |
| 2026-05-05 20:46 | 40.44749 | 17.73425 | 38071 ft | 398 kts | 293° |
| 2026-05-05 20:46 | 40.46792 | 17.66631 | 38074 ft | 399 kts | 293° |
| 2026-05-05 20:47 | 40.48826 | 17.59856 | 38082 ft | 399 kts | 293° |
| 2026-05-05 20:47 | 40.50858 | 17.53059 | 38081 ft | 400 kts | 292° |
| 2026-05-05 20:48 | 40.52891 | 17.46242 | 38075 ft | 400 kts | 292° |
| 2026-05-05 20:48 | 40.54926 | 17.39429 | 38074 ft | 401 kts | 292° |
| 2026-05-05 20:49 | 40.56948 | 17.32640 | 38078 ft | 401 kts | 292° |
| 2026-05-05 20:49 | 40.58978 | 17.25792 | 38075 ft | 401 kts | 292° |
| 2026-05-05 20:50 | 40.60661 | 17.20086 | 38078 ft | 402 kts | 292° |
| 2026-05-05 20:50 | 40.62982 | 17.12109 | 38082 ft | 402 kts | 291° |
| 2026-05-05 20:51 | 40.64930 | 17.05192 | 38084 ft | 402 kts | 291° |
| 2026-05-05 20:51 | 40.66860 | 16.98280 | 38084 ft | 402 kts | 291° |
| 2026-05-05 20:52 | 40.68801 | 16.91365 | 38091 ft | 402 kts | 291° |
| 2026-05-05 20:52 | 40.70748 | 16.84450 | 38082 ft | 402 kts | 291° |
| 2026-05-05 20:53 | 40.72685 | 16.77532 | 38087 ft | 403 kts | 291° |
| 2026-05-05 20:53 | 40.74616 | 16.70610 | 38080 ft | 403 kts | 291° |
| 2026-05-05 20:54 | 40.76540 | 16.63680 | 38068 ft | 402 kts | 290° |
| 2026-05-05 20:54 | 40.78469 | 16.56731 | 38075 ft | 402 kts | 290° |
| 2026-05-05 20:55 | 40.80368 | 16.49863 | 38073 ft | 402 kts | 290° |
| 2026-05-05 20:55 | 40.82281 | 16.42936 | 38071 ft | 402 kts | 290° |
| 2026-05-05 20:56 | 40.84191 | 16.35982 | 38070 ft | 402 kts | 290° |
| 2026-05-05 20:56 | 40.86097 | 16.29043 | 37448 ft | 405 kts | 290° |
| 2026-05-05 20:57 | 40.87061 | 16.25516 | 36601 ft | 407 kts | 289° |
| 2026-05-05 20:57 | 40.88018 | 16.22014 | 35903 ft | 405 kts | 290° |
| 2026-05-05 20:57 | 40.88977 | 16.18500 | 35126 ft | 405 kts | 289° |
| 2026-05-05 20:57 | 40.89919 | 16.15046 | 34401 ft | 405 kts | 289° |
| 2026-05-05 20:58 | 40.90880 | 16.11519 | 33537 ft | 406 kts | 289° |
| 2026-05-05 20:58 | 40.91841 | 16.07992 | 32609 ft | 408 kts | 289° |
| 2026-05-05 20:58 | 40.92806 | 16.04447 | 31704 ft | 411 kts | 289° |
| 2026-05-05 20:58 | 40.93771 | 16.00902 | 30803 ft | 413 kts | 289° |
| 2026-05-05 20:59 | 40.94735 | 15.97349 | 30220 ft | 408 kts | 289° |
| 2026-05-05 20:59 | 40.95371 | 15.94996 | 29762 ft | 405 kts | 289° |
| 2026-05-05 20:59 | 40.96313 | 15.91507 | 29153 ft | 399 kts | 289° |
| 2026-05-05 20:59 | 40.97241 | 15.88070 | 28557 ft | 395 kts | 289° |
| 2026-05-05 21:00 | 40.98158 | 15.84670 | 27970 ft | 391 kts | 288° |
| 2026-05-05 21:00 | 40.99066 | 15.81300 | 27398 ft | 387 kts | 288° |
| 2026-05-05 21:00 | 40.99957 | 15.77984 | 26834 ft | 383 kts | 288° |
| 2026-05-05 21:00 | 41.00846 | 15.74673 | 26275 ft | 380 kts | 288° |
| 2026-05-05 21:01 | 41.01728 | 15.71371 | 25691 ft | 378 kts | 287° |
| 2026-05-05 21:01 | 41.02396 | 15.68016 | 25090 ft | 377 kts | 281° |
| 2026-05-05 21:01 | 41.02947 | 15.64656 | 24501 ft | 377 kts | 281° |
| 2026-05-05 21:01 | 41.03507 | 15.61271 | 23911 ft | 377 kts | 281° |
| 2026-05-05 21:02 | 41.04074 | 15.57870 | 23306 ft | 377 kts | 281° |
| 2026-05-05 21:02 | 41.04640 | 15.54484 | 22731 ft | 375 kts | 281° |
| 2026-05-05 21:02 | 41.05201 | 15.51127 | 22219 ft | 372 kts | 281° |
| 2026-05-05 21:02 | 41.05755 | 15.47799 | 21719 ft | 368 kts | 281° |
| 2026-05-05 21:03 | 41.06302 | 15.44500 | 21249 ft | 365 kts | 281° |
| 2026-05-05 21:03 | 41.06842 | 15.41227 | 20763 ft | 362 kts | 281° |
| 2026-05-05 21:03 | 41.07379 | 15.37954 | 20269 ft | 359 kts | 281° |
| 2026-05-05 21:03 | 41.07908 | 15.34733 | 19800 ft | 357 kts | 281° |
| 2026-05-05 21:04 | 41.08436 | 15.31521 | 19308 ft | 355 kts | 281° |
| 2026-05-05 21:04 | 41.08557 | 15.30784 | 19199 ft | 354 kts | 281° |
| 2026-05-05 21:04 | 41.09078 | 15.27605 | 18707 ft | 353 kts | 281° |
| 2026-05-05 21:04 | 41.09356 | 15.25905 | 18438 ft | 352 kts | 281° |
| 2026-05-05 21:05 | 41.09840 | 15.22762 | 17894 ft | 350 kts | 276° |
| 2026-05-05 21:05 | 41.09891 | 15.19555 | 17389 ft | 347 kts | 263° |
| 2026-05-05 21:05 | 41.09375 | 15.16441 | 16904 ft | 345 kts | 250° |
| 2026-05-05 21:05 | 41.08303 | 15.13544 | 16695 ft | 353 kts | 238° |
| 2026-05-05 21:06 | 41.06781 | 15.10984 | 16417 ft | 355 kts | 230° |
| 2026-05-05 21:06 | 41.05164 | 15.08503 | 16115 ft | 355 kts | 230° |
| 2026-05-05 21:06 | 41.03555 | 15.06036 | 15845 ft | 354 kts | 230° |
| 2026-05-05 21:06 | 41.01946 | 15.03576 | 15577 ft | 353 kts | 230° |
| 2026-05-05 21:07 | 41.00337 | 15.01113 | 15293 ft | 352 kts | 230° |
| 2026-05-05 21:07 | 40.98738 | 14.98659 | 15016 ft | 352 kts | 230° |
| 2026-05-05 21:07 | 40.97155 | 14.96235 | 14735 ft | 352 kts | 230° |
| 2026-05-05 21:07 | 40.95552 | 14.93783 | 14465 ft | 351 kts | 230° |
| 2026-05-05 21:08 | 40.93954 | 14.91341 | 14199 ft | 350 kts | 230° |
| 2026-05-05 21:08 | 40.92360 | 14.88909 | 13927 ft | 348 kts | 230° |
| 2026-05-05 21:08 | 40.90791 | 14.86514 | 13639 ft | 347 kts | 230° |
| 2026-05-05 21:08 | 40.89215 | 14.84110 | 13362 ft | 346 kts | 230° |
| 2026-05-05 21:09 | 40.87767 | 14.81567 | 13084 ft | 344 kts | 239° |
| 2026-05-05 21:09 | 40.86538 | 14.78928 | 12904 ft | 332 kts | 239° |
| 2026-05-05 21:09 | 40.85341 | 14.76379 | 12772 ft | 319 kts | 239° |
| 2026-05-05 21:09 | 40.84189 | 14.73933 | 12640 ft | 307 kts | 239° |
| 2026-05-05 21:10 | 40.83077 | 14.71579 | 12518 ft | 297 kts | 239° |
| 2026-05-05 21:10 | 40.82046 | 14.69260 | 12372 ft | 286 kts | 248° |
| 2026-05-05 21:10 | 40.81790 | 14.66763 | 12249 ft | 273 kts | 280° |
| 2026-05-05 21:10 | 40.82569 | 14.64558 | 12120 ft | 265 kts | 311° |
| 2026-05-05 21:11 | 40.84041 | 14.63133 | 11911 ft | 263 kts | 327° |
| 2026-05-05 21:11 | 40.85600 | 14.61882 | 11656 ft | 260 kts | 326° |
| 2026-05-05 21:11 | 40.87132 | 14.60627 | 11447 ft | 258 kts | 326° |
| 2026-05-05 21:11 | 40.88764 | 14.59658 | 11246 ft | 260 kts | 349° |
| 2026-05-05 21:12 | 40.90535 | 14.59864 | 11051 ft | 264 kts | 21° |
| 2026-05-05 21:12 | 40.91992 | 14.61320 | 10901 ft | 267 kts | 53° |
| 2026-05-05 21:12 | 40.93005 | 14.63400 | 10749 ft | 269 kts | 57° |
| 2026-05-05 21:12 | 40.93984 | 14.65513 | 10596 ft | 269 kts | 57° |
| 2026-05-05 21:13 | 40.94957 | 14.67624 | 10433 ft | 268 kts | 57° |
| 2026-05-05 21:13 | 40.95928 | 14.69726 | 10278 ft | 267 kts | 57° |
| 2026-05-05 21:13 | 40.96901 | 14.71830 | 10122 ft | 267 kts | 57° |
| 2026-05-05 21:13 | 40.97872 | 14.73918 | 9957 ft | 266 kts | 57° |
| 2026-05-05 21:14 | 40.98831 | 14.75971 | 9804 ft | 266 kts | 57° |
| 2026-05-05 21:14 | 40.99803 | 14.78053 | 9624 ft | 265 kts | 57° |
| 2026-05-05 21:14 | 41.00771 | 14.80127 | 9489 ft | 265 kts | 57° |
| 2026-05-05 21:14 | 41.01738 | 14.82201 | 9339 ft | 264 kts | 57° |
| 2026-05-05 21:15 | 41.02665 | 14.84193 | 9193 ft | 263 kts | 57° |
| 2026-05-05 21:15 | 41.03838 | 14.86000 | 9033 ft | 256 kts | 31° |
| 2026-05-05 21:15 | 41.05444 | 14.86732 | 8883 ft | 240 kts | 359° |
| 2026-05-05 21:15 | 41.07021 | 14.86298 | 8735 ft | 229 kts | 329° |
| 2026-05-05 21:16 | 41.08341 | 14.85248 | 8595 ft | 220 kts | 326° |
| 2026-05-05 21:16 | 41.09633 | 14.84191 | 8471 ft | 211 kts | 326° |
| 2026-05-05 21:16 | 41.10841 | 14.83193 | 8348 ft | 198 kts | 322° |
| 2026-05-05 21:16 | 41.11703 | 14.81910 | 8202 ft | 184 kts | 295° |
| 2026-05-05 21:17 | 41.12036 | 14.80312 | 8103 ft | 181 kts | 271° |
| 2026-05-05 21:17 | 41.11816 | 14.78673 | 7997 ft | 183 kts | 247° |
| 2026-05-05 21:17 | 41.11172 | 14.77217 | 7823 ft | 183 kts | 239° |
| 2026-05-05 21:17 | 41.10496 | 14.75782 | 7701 ft | 183 kts | 239° |
| 2026-05-05 21:18 | 41.09808 | 14.74313 | 7581 ft | 191 kts | 239° |
| 2026-05-05 21:18 | 41.09093 | 14.72819 | 7468 ft | 192 kts | 238° |
| 2026-05-05 21:18 | 41.08384 | 14.71333 | 7360 ft | 192 kts | 239° |
| 2026-05-05 21:18 | 41.07678 | 14.69825 | 7253 ft | 192 kts | 239° |
| 2026-05-05 21:19 | 41.06977 | 14.68320 | 7138 ft | 191 kts | 239° |
| 2026-05-05 21:19 | 41.06280 | 14.66823 | 7060 ft | 190 kts | 239° |
| 2026-05-05 21:19 | 41.05581 | 14.65321 | 6892 ft | 191 kts | 239° |
| 2026-05-05 21:19 | 41.04883 | 14.63824 | 6652 ft | 190 kts | 239° |
| 2026-05-05 21:20 | 41.04194 | 14.62346 | 6387 ft | 188 kts | 239° |
| 2026-05-05 21:20 | 41.03508 | 14.60874 | 6107 ft | 187 kts | 239° |
| 2026-05-05 21:20 | 41.02829 | 14.59419 | 5834 ft | 186 kts | 239° |
| 2026-05-05 21:20 | 41.02147 | 14.57958 | 5556 ft | 186 kts | 239° |
| 2026-05-05 21:21 | 41.01467 | 14.56501 | 5285 ft | 187 kts | 239° |
| 2026-05-05 21:21 | 41.00787 | 14.55046 | 5012 ft | 185 kts | 239° |
| 2026-05-05 21:21 | 41.00113 | 14.53602 | 4731 ft | 183 kts | 239° |
| 2026-05-05 21:21 | 40.99439 | 14.52162 | 4472 ft | 184 kts | 238° |
| 2026-05-05 21:22 | 40.98768 | 14.50728 | 4193 ft | 183 kts | 238° |
| 2026-05-05 21:22 | 40.98120 | 14.49343 | 3939 ft | 175 kts | 238° |
| 2026-05-05 21:22 | 40.97505 | 14.48030 | 3692 ft | 162 kts | 238° |
| 2026-05-05 21:22 | 40.96934 | 14.46809 | 3459 ft | 149 kts | 237° |
| 2026-05-05 21:23 | 40.96409 | 14.45688 | 3246 ft | 140 kts | 237° |
| 2026-05-05 21:23 | 40.95900 | 14.44604 | 3041 ft | 137 kts | 237° |
| 2026-05-05 21:23 | 40.95403 | 14.43544 | 2834 ft | 136 kts | 237° |
| 2026-05-05 21:23 | 40.94910 | 14.42493 | 2645 ft | 136 kts | 237° |
| 2026-05-05 21:24 | 40.94404 | 14.41416 | 2444 ft | 136 kts | 237° |
| 2026-05-05 21:24 | 40.93903 | 14.40347 | 2238 ft | 137 kts | 237° |
| 2026-05-05 21:24 | 40.93410 | 14.39299 | 2038 ft | 136 kts | 237° |
| 2026-05-05 21:24 | 40.92911 | 14.38237 | 1830 ft | 137 kts | 238° |
| 2026-05-05 21:25 | 40.92406 | 14.37162 | 1621 ft | 137 kts | 238° |
| 2026-05-05 21:25 | 40.91900 | 14.36087 | 1401 ft | 138 kts | 238° |
| 2026-05-05 21:25 | 40.91390 | 14.35007 | 1183 ft | 139 kts | 238° |
| 2026-05-05 21:25 | 40.90884 | 14.33910 | 975 ft | 139 kts | 238° |
| 2026-05-05 21:26 | 40.90373 | 14.32824 | 781 ft | 139 kts | 237° |
| 2026-05-05 21:26 | 40.89865 | 14.31750 | 590 ft | 138 kts | 237° |
| 2026-05-05 21:26 | 40.89358 | 14.30690 | 358 ft | 137 kts | 237° |
| 2026-05-05 21:26 | 40.88886 | 14.29681 | 256 ft | 116 kts | 238° |
| 2026-05-05 21:27 | 40.88563 | 14.29017 | 269 ft | 74 kts | 238° |
| 2026-05-05 21:27 | 40.88342 | 14.28560 | 280 ft | 43 kts | 237° |
| 2026-05-05 21:27 | 40.88233 | 14.28440 | 286 ft | 14 kts | 217° |
| 2026-05-05 21:27 | 40.88176 | 14.28385 | 287 ft | 7 kts | 216° |
| 2026-05-05 21:28 | 40.88140 | 14.28358 | 286 ft | 5 kts | 206° |
| 2026-05-05 21:28 | 40.88122 | 14.28346 | 286 ft | 0 kts | 206° |
| 2026-05-05 21:29 | 40.88121 | 14.28346 | 286 ft | 2 kts | 206° |
| 2026-05-05 21:29 | 40.88097 | 14.28331 | 287 ft | 3 kts | 205° |
| 2026-05-05 21:29 | 40.88086 | 14.28324 | 287 ft | 1 kts | 204° |
| 2026-05-05 21:29 | 40.88074 | 14.28306 | 290 ft | 9 kts | 246° |
| 2026-05-05 21:30 | 40.88034 | 14.28173 | 295 ft | 17 kts | 237° |
| 2026-05-05 21:30 | 40.87947 | 14.28098 | 295 ft | 14 kts | 217° |
| 2026-05-05 21:30 | 40.87882 | 14.28049 | 313 ft | 10 kts | 166° |
| 2026-05-05 21:30 | 40.87838 | 14.28090 | 297 ft | 0 kts | 140° |